sensor_id;sensor_type;location;lat;lon;timestamp;temperature;humidity
15409;DHT22;7803;48.130;13.788;2022-09-11T06:22:13;22.30;99.90
15409;DHT22;7803;48.130;13.788;2022-09-11T06:25:15;22.30;99.90
15409;DHT22;7803;48.130;13.788;2022-09-11T06:28:17;22.30;99.90
15409;DHT22;7803;48.130;13.788;2022-09-11T06:31:21;22.30;99.90
15409;DHT22;7803;48.130;13.788;2022-09-11T06:34:23;22.30;99.90
15409;DHT22;7803;48.130;13.788;2022-09-11T06:37:27;22.30;99.90
15409;DHT22;7803;48.130;13.788;2022-09-11T06:40:29;22.30;99.90
15409;DHT22;7803;48.130;13.788;2022-09-11T06:43:31;22.30;99.90
15409;DHT22;7803;48.130;13.788;2022-09-11T06:46:34;22.30;99.90
15409;DHT22;7803;48.130;13.788;2022-09-11T06:49:36;22.30;99.90
15409;DHT22;7803;48.130;13.788;2022-09-11T06:52:39;22.30;99.90
15409;DHT22;7803;48.130;13.788;2022-09-11T06:55:41;22.30;99.90
15409;DHT22;7803;48.130;13.788;2022-09-11T06:58:43;22.20;99.90
15409;DHT22;7803;48.130;13.788;2022-09-11T07:01:45;22.30;99.90
15409;DHT22;7803;48.130;13.788;2022-09-11T07:04:48;22.20;99.90
15409;DHT22;7803;48.130;13.788;2022-09-11T07:07:53;22.30;99.90
15409;DHT22;7803;48.130;13.788;2022-09-11T07:11:01;22.30;99.90
15409;DHT22;7803;48.130;13.788;2022-09-11T07:14:04;22.30;99.90
15409;DHT22;7803;48.130;13.788;2022-09-11T07:17:06;22.30;99.90
15409;DHT22;7803;48.130;13.788;2022-09-11T07:20:09;22.30;99.90
15409;DHT22;7803;48.130;13.788;2022-09-11T07:23:13;22.30;99.90
15409;DHT22;7803;48.130;13.788;2022-09-11T07:26:16;22.20;99.90
15409;DHT22;7803;48.130;13.788;2022-09-11T07:29:18;22.30;99.90
15409;DHT22;7803;48.130;13.788;2022-09-11T07:32:21;22.30;99.90
15409;DHT22;7803;48.130;13.788;2022-09-11T07:35:24;22.30;99.90
15409;DHT22;7803;48.130;13.788;2022-09-11T07:38:29;22.20;99.90
15409;DHT22;7803;48.130;13.788;2022-09-11T07:41:31;22.30;99.90
15409;DHT22;7803;48.130;13.788;2022-09-11T07:44:34;22.20;99.90
15409;DHT22;7803;48.130;13.788;2022-09-11T07:47:36;22.20;99.90
15409;DHT22;7803;48.130;13.788;2022-09-11T07:50:39;22.30;99.90
15409;DHT22;7803;48.130;13.788;2022-09-11T07:53:44;22.20;99.90
15409;DHT22;7803;48.130;13.788;2022-09-11T07:56:47;22.20;99.90
15409;DHT22;7803;48.130;13.788;2022-09-11T07:59:49;22.20;99.90
15409;DHT22;7803;48.130;13.788;2022-09-11T08:02:51;22.20;99.90
15409;DHT22;7803;48.130;13.788;2022-09-11T08:05:56;22.30;99.90
15409;DHT22;7803;48.130;13.788;2022-09-11T08:09:02;22.20;99.90
15409;DHT22;7803;48.130;13.788;2022-09-11T08:12:05;22.20;99.90
15409;DHT22;7803;48.130;13.788;2022-09-11T08:15:08;22.20;99.90
15409;DHT22;7803;48.130;13.788;2022-09-11T08:18:10;22.20;99.90
15409;DHT22;7803;48.130;13.788;2022-09-11T08:21:12;22.30;99.90
15409;DHT22;7803;48.130;13.788;2022-09-11T08:24:16;22.20;99.90
15409;DHT22;7803;48.130;13.788;2022-09-11T08:27:19;22.20;99.90
15409;DHT22;7803;48.130;13.788;2022-09-11T08:30:21;22.20;99.90
15409;DHT22;7803;48.130;13.788;2022-09-11T08:33:23;22.20;99.90
15409;DHT22;7803;48.130;13.788;2022-09-11T08:36:25;22.20;99.90
15409;DHT22;7803;48.130;13.788;2022-09-11T08:39:29;22.20;99.90
15409;DHT22;7803;48.130;13.788;2022-09-11T08:42:31;22.20;99.90
15409;DHT22;7803;48.130;13.788;2022-09-11T08:45:35;22.20;99.90
15409;DHT22;7803;48.130;13.788;2022-09-11T08:48:45;22.20;99.90
15409;DHT22;7803;48.130;13.788;2022-09-11T08:51:51;22.20;99.90
15409;DHT22;7803;48.130;13.788;2022-09-11T08:54:57;22.20;99.90
15409;DHT22;7803;48.130;13.788;2022-09-11T08:58:07;22.30;99.90
15409;DHT22;7803;48.130;13.788;2022-09-11T09:01:20;22.30;99.90
15409;DHT22;7803;48.130;13.788;2022-09-11T09:04:37;22.30;99.90
15409;DHT22;7803;48.130;13.788;2022-09-11T09:07:51;22.30;99.90
15409;DHT22;7803;48.130;13.788;2022-09-11T09:11:03;22.50;99.90
15409;DHT22;7803;48.130;13.788;2022-09-11T09:14:30;22.50;99.90
15409;DHT22;7803;48.130;13.788;2022-09-11T09:17:36;22.50;99.90
15409;DHT22;7803;48.130;13.788;2022-09-11T09:20:43;22.60;99.90
15409;DHT22;7803;48.130;13.788;2022-09-11T09:23:50;22.60;99.90
15409;DHT22;7803;48.130;13.788;2022-09-11T09:26:55;22.60;99.90
15409;DHT22;7803;48.130;13.788;2022-09-11T09:30:00;22.60;99.90
15409;DHT22;7803;48.130;13.788;2022-09-11T09:33:22;22.60;99.90
15409;DHT22;7803;48.130;13.788;2022-09-11T09:36:29;22.60;99.90
15409;DHT22;7803;48.130;13.788;2022-09-11T09:39:33;22.60;99.90
15409;DHT22;7803;48.130;13.788;2022-09-11T09:43:01;22.60;99.90
15409;DHT22;7803;48.130;13.788;2022-09-11T09:46:14;22.50;99.90
15409;DHT22;7803;48.130;13.788;2022-09-11T09:49:23;22.60;99.90
15409;DHT22;7803;48.130;13.788;2022-09-11T09:52:31;22.50;99.90
15409;DHT22;7803;48.130;13.788;2022-09-11T09:55:35;22.50;99.90
15409;DHT22;7803;48.130;13.788;2022-09-11T09:58:44;22.50;99.90
15409;DHT22;7803;48.130;13.788;2022-09-11T10:01:50;22.50;99.90
15409;DHT22;7803;48.130;13.788;2022-09-11T10:05:05;22.50;99.90
15409;DHT22;7803;48.130;13.788;2022-09-11T10:08:25;22.50;99.90
15409;DHT22;7803;48.130;13.788;2022-09-11T10:11:28;22.50;99.90
15409;DHT22;7803;48.130;13.788;2022-09-11T10:14:35;22.50;99.90
15409;DHT22;7803;48.130;13.788;2022-09-11T10:17:39;22.50;99.90
15409;DHT22;7803;48.130;13.788;2022-09-11T10:20:42;22.50;99.90
15409;DHT22;7803;48.130;13.788;2022-09-11T10:23:45;22.50;99.90
15409;DHT22;7803;48.130;13.788;2022-09-11T10:26:50;22.50;99.90
15409;DHT22;7803;48.130;13.788;2022-09-11T10:29:57;22.50;99.90
15409;DHT22;7803;48.130;13.788;2022-09-11T10:33:03;22.50;99.90
15409;DHT22;7803;48.130;13.788;2022-09-11T10:36:07;22.50;99.90
15409;DHT22;7803;48.130;13.788;2022-09-11T10:39:16;22.50;99.90
15409;DHT22;7803;48.130;13.788;2022-09-11T10:42:23;22.50;99.90
15409;DHT22;7803;48.130;13.788;2022-09-11T10:45:28;22.50;99.90
15409;DHT22;7803;48.130;13.788;2022-09-11T10:48:33;22.50;99.90
15409;DHT22;7803;48.130;13.788;2022-09-11T10:51:38;22.50;99.90
15409;DHT22;7803;48.130;13.788;2022-09-11T10:54:57;22.50;99.90
15409;DHT22;7803;48.130;13.788;2022-09-11T10:58:06;22.50;99.90
15409;DHT22;7803;48.130;13.788;2022-09-11T11:01:11;22.60;99.90
15409;DHT22;7803;48.130;13.788;2022-09-11T11:04:13;22.80;99.90
15409;DHT22;7803;48.130;13.788;2022-09-11T11:07:27;22.90;99.90
15409;DHT22;7803;48.130;13.788;2022-09-11T11:10:43;23.00;99.90
15409;DHT22;7803;48.130;13.788;2022-09-11T11:14:17;23.10;99.90
15409;DHT22;7803;48.130;13.788;2022-09-11T11:17:31;23.10;99.90
15409;DHT22;7803;48.130;13.788;2022-09-11T11:20:41;23.10;99.90
15409;DHT22;7803;48.130;13.788;2022-09-11T11:23:55;23.10;99.90
15409;DHT22;7803;48.130;13.788;2022-09-11T11:27:13;23.00;99.90
15409;DHT22;7803;48.130;13.788;2022-09-11T11:30:22;23.00;99.90
15409;DHT22;7803;48.130;13.788;2022-09-11T11:33:46;23.00;99.90
15409;DHT22;7803;48.130;13.788;2022-09-11T11:36:58;22.90;99.90
15409;DHT22;7803;48.130;13.788;2022-09-11T11:40:05;22.90;99.90
15409;DHT22;7803;48.130;13.788;2022-09-11T11:43:12;22.90;99.90
15409;DHT22;7803;48.130;13.788;2022-09-11T11:46:19;22.80;99.90
15409;DHT22;7803;48.130;13.788;2022-09-11T11:49:32;22.90;99.90
15409;DHT22;7803;48.130;13.788;2022-09-11T11:52:42;22.80;99.90
15409;DHT22;7803;48.130;13.788;2022-09-11T11:55:55;22.80;99.90
15409;DHT22;7803;48.130;13.788;2022-09-11T11:59:03;22.80;99.90
15409;DHT22;7803;48.130;13.788;2022-09-11T12:02:17;22.70;99.90
15409;DHT22;7803;48.130;13.788;2022-09-11T12:05:24;22.70;99.90
15409;DHT22;7803;48.130;13.788;2022-09-11T12:08:27;22.70;99.90
15409;DHT22;7803;48.130;13.788;2022-09-11T12:11:31;22.70;99.90
15409;DHT22;7803;48.130;13.788;2022-09-11T12:14:34;22.70;99.90
15409;DHT22;7803;48.130;13.788;2022-09-11T12:17:37;22.70;99.90
15409;DHT22;7803;48.130;13.788;2022-09-11T12:20:41;22.70;99.90
15409;DHT22;7803;48.130;13.788;2022-09-11T12:24:08;22.70;99.90
15409;DHT22;7803;48.130;13.788;2022-09-11T12:27:50;22.60;99.90
15409;DHT22;7803;48.130;13.788;2022-09-11T12:31:03;22.60;99.90
15409;DHT22;7803;48.130;13.788;2022-09-11T12:34:14;22.60;99.90
15409;DHT22;7803;48.130;13.788;2022-09-11T12:37:25;22.60;99.90
15409;DHT22;7803;48.130;13.788;2022-09-11T12:40:37;22.60;99.90
15409;DHT22;7803;48.130;13.788;2022-09-11T12:43:46;22.60;99.90
15409;DHT22;7803;48.130;13.788;2022-09-11T12:47:15;22.60;99.90
15409;DHT22;7803;48.130;13.788;2022-09-11T12:50:21;22.60;99.90
15409;DHT22;7803;48.130;13.788;2022-09-11T12:53:28;22.60;99.90
15409;DHT22;7803;48.130;13.788;2022-09-11T12:56:32;22.60;99.90
15409;DHT22;7803;48.130;13.788;2022-09-11T12:59:37;22.50;99.90
15409;DHT22;7803;48.130;13.788;2022-09-11T13:02:42;22.50;99.90
15409;DHT22;7803;48.130;13.788;2022-09-11T13:05:53;22.50;99.90
15409;DHT22;7803;48.130;13.788;2022-09-11T13:08:58;22.50;99.90
15409;DHT22;7803;48.130;13.788;2022-09-11T13:15:39;22.50;99.90
15409;DHT22;7803;48.130;13.788;2022-09-11T13:18:42;22.50;99.90
15409;DHT22;7803;48.130;13.788;2022-09-11T13:21:44;22.50;99.90
15409;DHT22;7803;48.130;13.788;2022-09-11T13:24:49;22.50;99.90
15409;DHT22;7803;48.130;13.788;2022-09-11T13:27:53;22.50;99.90
15409;DHT22;7803;48.130;13.788;2022-09-11T13:30:57;22.50;99.90
15409;DHT22;7803;48.130;13.788;2022-09-11T13:34:04;22.50;99.90
15409;DHT22;7803;48.130;13.788;2022-09-11T13:37:09;22.50;99.90
15409;DHT22;7803;48.130;13.788;2022-09-11T13:40:20;22.50;99.90
15409;DHT22;7803;48.130;13.788;2022-09-11T13:43:28;22.50;99.90
15409;DHT22;7803;48.130;13.788;2022-09-11T13:46:31;22.50;99.90
15409;DHT22;7803;48.130;13.788;2022-09-11T13:49:35;22.50;99.90
15409;DHT22;7803;48.130;13.788;2022-09-11T13:52:40;22.50;99.90
15409;DHT22;7803;48.130;13.788;2022-09-11T13:55:47;22.50;99.90
15409;DHT22;7803;48.130;13.788;2022-09-11T13:58:49;22.50;99.90
15409;DHT22;7803;48.130;13.788;2022-09-11T14:01:52;22.50;99.90
15409;DHT22;7803;48.130;13.788;2022-09-11T14:05:02;22.50;99.90
15409;DHT22;7803;48.130;13.788;2022-09-11T14:08:19;22.50;99.90
15409;DHT22;7803;48.130;13.788;2022-09-11T14:11:26;22.50;99.90
15409;DHT22;7803;48.130;13.788;2022-09-11T14:14:29;22.50;99.90
15409;DHT22;7803;48.130;13.788;2022-09-11T14:17:31;22.40;99.90
15409;DHT22;7803;48.130;13.788;2022-09-11T14:20:33;22.40;99.90
15409;DHT22;7803;48.130;13.788;2022-09-11T14:23:41;22.40;99.90
15409;DHT22;7803;48.130;13.788;2022-09-11T14:26:45;22.40;99.90
15409;DHT22;7803;48.130;13.788;2022-09-11T14:29:52;22.40;99.90
15409;DHT22;7803;48.130;13.788;2022-09-11T14:33:11;22.40;99.90
15409;DHT22;7803;48.130;13.788;2022-09-11T14:36:17;22.40;99.90
15409;DHT22;7803;48.130;13.788;2022-09-11T14:39:32;22.40;99.90
15409;DHT22;7803;48.130;13.788;2022-09-11T14:42:39;22.40;99.90
15409;DHT22;7803;48.130;13.788;2022-09-11T14:45:42;22.40;99.90
15409;DHT22;7803;48.130;13.788;2022-09-11T14:48:44;22.40;99.90
15409;DHT22;7803;48.130;13.788;2022-09-11T14:51:52;22.40;99.90
15409;DHT22;7803;48.130;13.788;2022-09-11T14:54:55;22.40;99.90
15409;DHT22;7803;48.130;13.788;2022-09-11T14:57:58;22.40;99.90
15409;DHT22;7803;48.130;13.788;2022-09-11T15:01:01;22.30;99.90
15409;DHT22;7803;48.130;13.788;2022-09-11T15:04:03;22.40;99.90
15409;DHT22;7803;48.130;13.788;2022-09-11T15:07:07;22.40;99.90
15409;DHT22;7803;48.130;13.788;2022-09-11T15:10:10;22.40;99.90
15409;DHT22;7803;48.130;13.788;2022-09-11T15:13:14;22.40;99.90
15409;DHT22;7803;48.130;13.788;2022-09-11T15:16:16;22.40;99.90
15409;DHT22;7803;48.130;13.788;2022-09-11T15:19:18;22.40;99.90
15409;DHT22;7803;48.130;13.788;2022-09-11T15:22:20;22.40;99.90
15409;DHT22;7803;48.130;13.788;2022-09-11T15:25:22;22.40;99.90
15409;DHT22;7803;48.130;13.788;2022-09-11T15:28:26;22.40;99.90
15409;DHT22;7803;48.130;13.788;2022-09-11T15:31:28;22.30;99.90
15409;DHT22;7803;48.130;13.788;2022-09-11T15:34:30;22.30;99.90
15409;DHT22;7803;48.130;13.788;2022-09-11T15:37:33;22.30;99.90
15409;DHT22;7803;48.130;13.788;2022-09-11T15:40:35;22.40;99.90
15409;DHT22;7803;48.130;13.788;2022-09-11T15:43:38;22.40;99.90
15409;DHT22;7803;48.130;13.788;2022-09-11T15:46:40;22.30;99.90
15409;DHT22;7803;48.130;13.788;2022-09-11T15:49:42;22.40;99.90
15409;DHT22;7803;48.130;13.788;2022-09-11T15:52:47;22.30;99.90
15409;DHT22;7803;48.130;13.788;2022-09-11T15:55:49;22.30;99.90
15409;DHT22;7803;48.130;13.788;2022-09-11T15:59:05;22.30;99.90
15409;DHT22;7803;48.130;13.788;2022-09-11T16:02:07;22.30;99.90
15409;DHT22;7803;48.130;13.788;2022-09-11T16:05:09;22.30;99.90
15409;DHT22;7803;48.130;13.788;2022-09-11T16:08:11;22.30;99.90
15409;DHT22;7803;48.130;13.788;2022-09-11T16:11:14;22.30;99.90
15409;DHT22;7803;48.130;13.788;2022-09-11T16:14:20;22.30;99.90
15409;DHT22;7803;48.130;13.788;2022-09-11T16:17:22;22.30;99.90
15409;DHT22;7803;48.130;13.788;2022-09-11T16:20:30;22.30;99.90
15409;DHT22;7803;48.130;13.788;2022-09-11T16:23:33;22.30;99.90
15409;DHT22;7803;48.130;13.788;2022-09-11T16:26:36;22.30;99.90
15409;DHT22;7803;48.130;13.788;2022-09-11T16:29:40;22.30;99.90
15409;DHT22;7803;48.130;13.788;2022-09-11T16:32:42;22.30;99.90
15409;DHT22;7803;48.130;13.788;2022-09-11T16:35:55;22.30;99.90
15409;DHT22;7803;48.130;13.788;2022-09-11T16:38:57;22.30;99.90
15409;DHT22;7803;48.130;13.788;2022-09-11T16:41:59;22.30;99.90
15409;DHT22;7803;48.130;13.788;2022-09-11T16:45:03;22.20;99.90
15409;DHT22;7803;48.130;13.788;2022-09-11T16:48:05;22.20;99.90
15409;DHT22;7803;48.130;13.788;2022-09-11T16:51:09;22.30;99.90
15409;DHT22;7803;48.130;13.788;2022-09-11T16:54:11;22.30;99.90
15409;DHT22;7803;48.130;13.788;2022-09-11T16:57:13;22.30;99.90
15409;DHT22;7803;48.130;13.788;2022-09-11T17:00:17;22.20;99.90
15409;DHT22;7803;48.130;13.788;2022-09-11T17:03:19;22.20;99.90
15409;DHT22;7803;48.130;13.788;2022-09-11T17:06:23;22.20;99.90
15409;DHT22;7803;48.130;13.788;2022-09-11T17:09:27;22.30;99.90
15409;DHT22;7803;48.130;13.788;2022-09-11T17:12:29;22.20;99.90
15409;DHT22;7803;48.130;13.788;2022-09-11T17:15:34;22.20;99.90
15409;DHT22;7803;48.130;13.788;2022-09-11T17:18:36;22.30;99.90
15409;DHT22;7803;48.130;13.788;2022-09-11T17:21:38;22.20;99.90
15409;DHT22;7803;48.130;13.788;2022-09-11T17:24:40;22.20;99.90
15409;DHT22;7803;48.130;13.788;2022-09-11T17:27:42;22.20;99.90
15409;DHT22;7803;48.130;13.788;2022-09-11T17:30:46;22.30;99.90
15409;DHT22;7803;48.130;13.788;2022-09-11T17:33:48;22.20;99.90
15409;DHT22;7803;48.130;13.788;2022-09-11T17:36:50;22.20;99.90
15409;DHT22;7803;48.130;13.788;2022-09-11T17:39:52;22.20;99.90
15409;DHT22;7803;48.130;13.788;2022-09-11T17:42:54;22.20;99.90
15409;DHT22;7803;48.130;13.788;2022-09-11T17:46:01;22.20;99.90
15409;DHT22;7803;48.130;13.788;2022-09-11T17:49:03;22.20;99.90
15409;DHT22;7803;48.130;13.788;2022-09-11T17:52:05;22.20;99.90
15409;DHT22;7803;48.130;13.788;2022-09-11T17:55:08;22.20;99.90
15409;DHT22;7803;48.130;13.788;2022-09-11T17:58:10;22.20;99.90
15409;DHT22;7803;48.130;13.788;2022-09-11T18:01:14;22.20;99.90
15409;DHT22;7803;48.130;13.788;2022-09-11T18:04:16;22.20;99.90
15409;DHT22;7803;48.130;13.788;2022-09-11T18:07:18;22.10;99.90
15409;DHT22;7803;48.130;13.788;2022-09-11T18:10:20;22.20;99.90
15409;DHT22;7803;48.130;13.788;2022-09-11T18:13:23;22.20;99.90
15409;DHT22;7803;48.130;13.788;2022-09-11T18:16:26;22.20;99.90
15409;DHT22;7803;48.130;13.788;2022-09-11T18:19:28;22.20;99.90
15409;DHT22;7803;48.130;13.788;2022-09-11T18:22:30;22.20;99.90
15409;DHT22;7803;48.130;13.788;2022-09-11T18:25:36;22.20;99.90
15409;DHT22;7803;48.130;13.788;2022-09-11T18:28:38;22.10;99.90
15409;DHT22;7803;48.130;13.788;2022-09-11T18:31:44;22.10;99.90
15409;DHT22;7803;48.130;13.788;2022-09-11T18:34:46;22.20;99.90
15409;DHT22;7803;48.130;13.788;2022-09-11T18:37:51;22.20;99.90
15409;DHT22;7803;48.130;13.788;2022-09-11T18:40:53;22.20;99.90
15409;DHT22;7803;48.130;13.788;2022-09-11T18:43:59;22.10;99.90
15409;DHT22;7803;48.130;13.788;2022-09-11T18:47:02;22.10;99.90
15409;DHT22;7803;48.130;13.788;2022-09-11T18:50:05;22.10;99.90
15409;DHT22;7803;48.130;13.788;2022-09-11T18:53:07;22.10;99.90
15409;DHT22;7803;48.130;13.788;2022-09-11T18:56:10;22.10;99.90
15409;DHT22;7803;48.130;13.788;2022-09-11T18:59:13;22.10;99.90
15409;DHT22;7803;48.130;13.788;2022-09-11T19:02:17;22.10;99.90
15409;DHT22;7803;48.130;13.788;2022-09-11T19:05:19;22.10;99.90
15409;DHT22;7803;48.130;13.788;2022-09-11T19:08:21;22.10;99.90
15409;DHT22;7803;48.130;13.788;2022-09-11T19:11:24;22.10;99.90
15409;DHT22;7803;48.130;13.788;2022-09-11T19:14:26;22.10;99.90
15409;DHT22;7803;48.130;13.788;2022-09-11T19:17:29;22.10;99.90
15409;DHT22;7803;48.130;13.788;2022-09-11T19:20:32;22.10;99.90
15409;DHT22;7803;48.130;13.788;2022-09-11T19:23:35;22.10;99.90
15409;DHT22;7803;48.130;13.788;2022-09-11T19:26:40;22.10;99.90
15409;DHT22;7803;48.130;13.788;2022-09-11T19:29:43;22.10;99.90
15409;DHT22;7803;48.130;13.788;2022-09-11T19:32:46;22.10;99.90
15409;DHT22;7803;48.130;13.788;2022-09-11T19:35:55;22.10;99.90
15409;DHT22;7803;48.130;13.788;2022-09-11T19:38:57;22.10;99.90
15409;DHT22;7803;48.130;13.788;2022-09-11T19:41:59;22.10;99.90
15409;DHT22;7803;48.130;13.788;2022-09-11T19:45:02;22.10;99.90
15409;DHT22;7803;48.130;13.788;2022-09-11T19:48:06;22.10;99.90
15409;DHT22;7803;48.130;13.788;2022-09-11T19:51:10;22.10;99.90
15409;DHT22;7803;48.130;13.788;2022-09-11T19:54:13;22.10;99.90
15409;DHT22;7803;48.130;13.788;2022-09-11T19:57:15;22.10;99.90
15409;DHT22;7803;48.130;13.788;2022-09-11T20:00:17;22.10;99.90
15409;DHT22;7803;48.130;13.788;2022-09-11T20:03:20;22.10;99.90
15409;DHT22;7803;48.130;13.788;2022-09-11T20:06:26;22.10;99.90
15409;DHT22;7803;48.130;13.788;2022-09-11T20:09:29;22.10;99.90
15409;DHT22;7803;48.130;13.788;2022-09-11T20:12:31;22.00;99.90
15409;DHT22;7803;48.130;13.788;2022-09-11T20:15:36;22.10;99.90
15409;DHT22;7803;48.130;13.788;2022-09-11T20:18:40;22.10;99.90
15409;DHT22;7803;48.130;13.788;2022-09-11T20:21:42;22.00;99.90
15409;DHT22;7803;48.130;13.788;2022-09-11T20:24:44;22.10;99.90
15409;DHT22;7803;48.130;13.788;2022-09-11T20:27:46;22.10;99.90
15409;DHT22;7803;48.130;13.788;2022-09-11T20:30:48;22.00;99.90
15409;DHT22;7803;48.130;13.788;2022-09-11T20:33:52;22.10;99.90
15409;DHT22;7803;48.130;13.788;2022-09-11T20:36:54;22.00;99.90
15409;DHT22;7803;48.130;13.788;2022-09-11T20:39:59;22.00;99.90
15409;DHT22;7803;48.130;13.788;2022-09-11T20:43:02;22.00;99.90
15409;DHT22;7803;48.130;13.788;2022-09-11T20:46:04;22.00;99.90
15409;DHT22;7803;48.130;13.788;2022-09-11T20:49:09;22.00;99.90
15409;DHT22;7803;48.130;13.788;2022-09-11T20:52:11;22.00;99.90
15409;DHT22;7803;48.130;13.788;2022-09-11T20:55:13;22.00;99.90
15409;DHT22;7803;48.130;13.788;2022-09-11T20:58:16;22.00;99.90
15409;DHT22;7803;48.130;13.788;2022-09-11T21:01:19;22.00;99.90
15409;DHT22;7803;48.130;13.788;2022-09-11T21:04:23;22.00;99.90
15409;DHT22;7803;48.130;13.788;2022-09-11T21:07:25;22.00;99.90
15409;DHT22;7803;48.130;13.788;2022-09-11T21:10:27;22.00;99.90
15409;DHT22;7803;48.130;13.788;2022-09-11T21:13:29;22.00;99.90
15409;DHT22;7803;48.130;13.788;2022-09-11T21:16:34;22.00;99.90
15409;DHT22;7803;48.130;13.788;2022-09-11T21:19:37;22.00;99.90
15409;DHT22;7803;48.130;13.788;2022-09-11T21:22:39;22.00;99.90
15409;DHT22;7803;48.130;13.788;2022-09-11T21:25:41;22.00;99.90
15409;DHT22;7803;48.130;13.788;2022-09-11T21:28:43;22.00;99.90
15409;DHT22;7803;48.130;13.788;2022-09-11T21:31:45;22.00;99.90
15409;DHT22;7803;48.130;13.788;2022-09-11T21:34:49;22.00;99.90
15409;DHT22;7803;48.130;13.788;2022-09-11T21:37:50;22.00;99.90
15409;DHT22;7803;48.130;13.788;2022-09-11T21:40:53;22.00;99.90
15409;DHT22;7803;48.130;13.788;2022-09-11T21:43:55;22.00;99.90
15409;DHT22;7803;48.130;13.788;2022-09-11T21:46:57;22.00;99.90
15409;DHT22;7803;48.130;13.788;2022-09-11T21:50:00;22.00;99.90
15409;DHT22;7803;48.130;13.788;2022-09-11T21:53:07;22.00;99.90
15409;DHT22;7803;48.130;13.788;2022-09-11T21:56:16;22.00;99.90
15409;DHT22;7803;48.130;13.788;2022-09-11T21:59:18;22.00;99.90
15409;DHT22;7803;48.130;13.788;2022-09-11T22:02:20;22.00;99.90
15409;DHT22;7803;48.130;13.788;2022-09-11T22:05:25;22.00;99.90
15409;DHT22;7803;48.130;13.788;2022-09-11T22:08:27;22.00;99.90
15409;DHT22;7803;48.130;13.788;2022-09-11T22:11:29;22.00;99.90
15409;DHT22;7803;48.130;13.788;2022-09-11T22:14:31;22.00;99.90
15409;DHT22;7803;48.130;13.788;2022-09-11T22:17:33;22.00;99.90
15409;DHT22;7803;48.130;13.788;2022-09-11T22:20:36;22.00;99.90
15409;DHT22;7803;48.130;13.788;2022-09-11T22:23:39;22.00;99.90
15409;DHT22;7803;48.130;13.788;2022-09-11T22:26:41;22.00;99.90
15409;DHT22;7803;48.130;13.788;2022-09-11T22:29:43;22.00;99.90
15409;DHT22;7803;48.130;13.788;2022-09-11T22:32:45;22.00;99.90
15409;DHT22;7803;48.130;13.788;2022-09-11T22:35:48;22.00;99.90
15409;DHT22;7803;48.130;13.788;2022-09-11T22:38:51;21.90;99.90
15409;DHT22;7803;48.130;13.788;2022-09-11T22:41:54;22.00;99.90
15409;DHT22;7803;48.130;13.788;2022-09-11T22:44:56;22.00;99.90
15409;DHT22;7803;48.130;13.788;2022-09-11T22:47:58;22.00;99.90
15409;DHT22;7803;48.130;13.788;2022-09-11T22:51:01;21.90;99.90
15409;DHT22;7803;48.130;13.788;2022-09-11T22:54:04;22.00;99.90
15409;DHT22;7803;48.130;13.788;2022-09-11T22:57:06;22.00;99.90
15409;DHT22;7803;48.130;13.788;2022-09-11T23:00:11;21.90;99.90
15409;DHT22;7803;48.130;13.788;2022-09-11T23:03:14;21.90;99.90
15409;DHT22;7803;48.130;13.788;2022-09-11T23:06:18;22.00;99.90
15409;DHT22;7803;48.130;13.788;2022-09-11T23:09:38;22.00;99.90
15409;DHT22;7803;48.130;13.788;2022-09-11T23:12:40;22.00;99.90
15409;DHT22;7803;48.130;13.788;2022-09-11T23:15:44;21.90;99.90
15409;DHT22;7803;48.130;13.788;2022-09-11T23:18:46;21.90;99.90
15409;DHT22;7803;48.130;13.788;2022-09-11T23:21:50;22.00;99.90
15409;DHT22;7803;48.130;13.788;2022-09-11T23:24:52;21.90;99.90
15409;DHT22;7803;48.130;13.788;2022-09-11T23:27:54;21.90;99.90
15409;DHT22;7803;48.130;13.788;2022-09-11T23:30:56;21.90;99.90
15409;DHT22;7803;48.130;13.788;2022-09-11T23:33:59;21.90;99.90
15409;DHT22;7803;48.130;13.788;2022-09-11T23:37:03;21.90;99.90
15409;DHT22;7803;48.130;13.788;2022-09-11T23:40:06;21.90;99.90
15409;DHT22;7803;48.130;13.788;2022-09-11T23:43:08;21.90;99.90
15409;DHT22;7803;48.130;13.788;2022-09-11T23:46:10;21.90;99.90
15409;DHT22;7803;48.130;13.788;2022-09-11T23:49:12;21.90;99.90
15409;DHT22;7803;48.130;13.788;2022-09-11T23:52:16;21.90;99.90
15409;DHT22;7803;48.130;13.788;2022-09-11T23:55:18;21.90;99.90
15409;DHT22;7803;48.130;13.788;2022-09-11T23:58:20;21.90;99.90
